sensor_id;sensor_type;location;lat;lon;timestamp;temperature;humidity
41668;DHT22;27356;50.920;5.350;2022-10-16T00:00:30;14.20;99.90
41668;DHT22;27356;50.920;5.350;2022-10-16T00:02:55;14.30;99.90
41668;DHT22;27356;50.920;5.350;2022-10-16T00:05:21;14.20;99.90
41668;DHT22;27356;50.920;5.350;2022-10-16T00:07:46;14.20;99.90
41668;DHT22;27356;50.920;5.350;2022-10-16T00:10:12;14.20;99.90
41668;DHT22;27356;50.920;5.350;2022-10-16T00:12:37;14.10;99.90
41668;DHT22;27356;50.920;5.350;2022-10-16T00:15:03;14.10;99.90
41668;DHT22;27356;50.920;5.350;2022-10-16T00:17:30;14.10;99.90
41668;DHT22;27356;50.920;5.350;2022-10-16T00:19:55;14.20;99.90
41668;DHT22;27356;50.920;5.350;2022-10-16T00:22:22;14.10;99.90
41668;DHT22;27356;50.920;5.350;2022-10-16T00:24:47;14.10;99.90
41668;DHT22;27356;50.920;5.350;2022-10-16T00:27:13;14.00;99.90
41668;DHT22;27356;50.920;5.350;2022-10-16T00:29:38;14.00;99.90
41668;DHT22;27356;50.920;5.350;2022-10-16T00:32:04;14.00;99.90
41668;DHT22;27356;50.920;5.350;2022-10-16T00:34:29;14.00;99.90
41668;DHT22;27356;50.920;5.350;2022-10-16T00:36:55;13.90;99.90
41668;DHT22;27356;50.920;5.350;2022-10-16T00:39:20;13.90;99.90
41668;DHT22;27356;50.920;5.350;2022-10-16T00:41:47;13.90;99.90
41668;DHT22;27356;50.920;5.350;2022-10-16T00:46:56;13.90;99.90
41668;DHT22;27356;50.920;5.350;2022-10-16T00:49:22;13.90;99.90
41668;DHT22;27356;50.920;5.350;2022-10-16T00:51:49;14.00;99.90
41668;DHT22;27356;50.920;5.350;2022-10-16T00:54:26;13.90;99.90
41668;DHT22;27356;50.920;5.350;2022-10-16T00:56:53;13.90;99.90
41668;DHT22;27356;50.920;5.350;2022-10-16T01:01:47;13.80;99.90
41668;DHT22;27356;50.920;5.350;2022-10-16T01:04:13;13.80;99.90
41668;DHT22;27356;50.920;5.350;2022-10-16T01:14:40;13.70;99.90
41668;DHT22;27356;50.920;5.350;2022-10-16T01:17:15;13.70;99.90
41668;DHT22;27356;50.920;5.350;2022-10-16T01:22:22;13.60;99.90
41668;DHT22;27356;50.920;5.350;2022-10-16T01:24:50;13.70;99.90
41668;DHT22;27356;50.920;5.350;2022-10-16T01:27:25;13.60;99.90
41668;DHT22;27356;50.920;5.350;2022-10-16T01:29:56;13.60;99.90
41668;DHT22;27356;50.920;5.350;2022-10-16T01:35:02;13.60;99.90
41668;DHT22;27356;50.920;5.350;2022-10-16T01:37:33;13.60;99.90
41668;DHT22;27356;50.920;5.350;2022-10-16T01:40:00;13.70;99.90
41668;DHT22;27356;50.920;5.350;2022-10-16T01:42:30;13.60;99.90
41668;DHT22;27356;50.920;5.350;2022-10-16T01:44:58;13.60;99.90
41668;DHT22;27356;50.920;5.350;2022-10-16T01:47:25;13.50;99.90
41668;DHT22;27356;50.920;5.350;2022-10-16T01:49:52;13.50;99.90
41668;DHT22;27356;50.920;5.350;2022-10-16T01:52:22;13.50;99.90
41668;DHT22;27356;50.920;5.350;2022-10-16T01:54:49;13.60;99.90
41668;DHT22;27356;50.920;5.350;2022-10-16T01:57:16;13.60;99.90
41668;DHT22;27356;50.920;5.350;2022-10-16T01:59:44;13.60;99.90
41668;DHT22;27356;50.920;5.350;2022-10-16T02:02:10;13.60;99.90
41668;DHT22;27356;50.920;5.350;2022-10-16T02:04:38;13.60;99.90
41668;DHT22;27356;50.920;5.350;2022-10-16T02:07:04;13.50;99.90
41668;DHT22;27356;50.920;5.350;2022-10-16T02:09:30;13.50;99.90
41668;DHT22;27356;50.920;5.350;2022-10-16T02:11:57;13.60;99.90
41668;DHT22;27356;50.920;5.350;2022-10-16T02:14:24;13.50;99.90
41668;DHT22;27356;50.920;5.350;2022-10-16T02:16:50;13.50;99.90
41668;DHT22;27356;50.920;5.350;2022-10-16T02:19:16;13.50;99.90
41668;DHT22;27356;50.920;5.350;2022-10-16T02:21:44;13.60;99.90
41668;DHT22;27356;50.920;5.350;2022-10-16T02:27:03;13.70;99.90
41668;DHT22;27356;50.920;5.350;2022-10-16T02:29:30;13.70;99.90
41668;DHT22;27356;50.920;5.350;2022-10-16T02:31:59;13.60;99.90
41668;DHT22;27356;50.920;5.350;2022-10-16T02:34:25;13.60;99.90
41668;DHT22;27356;50.920;5.350;2022-10-16T02:36:52;13.60;99.90
41668;DHT22;27356;50.920;5.350;2022-10-16T02:39:18;13.60;99.90
41668;DHT22;27356;50.920;5.350;2022-10-16T02:41:45;13.60;99.90
41668;DHT22;27356;50.920;5.350;2022-10-16T02:44:10;13.40;99.90
41668;DHT22;27356;50.920;5.350;2022-10-16T02:46:36;13.40;99.90
41668;DHT22;27356;50.920;5.350;2022-10-16T02:49:01;13.40;99.90
41668;DHT22;27356;50.920;5.350;2022-10-16T02:51:27;13.40;99.90
41668;DHT22;27356;50.920;5.350;2022-10-16T02:53:52;13.50;99.90
41668;DHT22;27356;50.920;5.350;2022-10-16T02:56:18;13.60;99.90
41668;DHT22;27356;50.920;5.350;2022-10-16T02:58:44;13.60;99.90
41668;DHT22;27356;50.920;5.350;2022-10-16T03:01:09;13.50;99.90
41668;DHT22;27356;50.920;5.350;2022-10-16T03:03:35;13.60;99.90
41668;DHT22;27356;50.920;5.350;2022-10-16T03:06:00;13.60;99.90
41668;DHT22;27356;50.920;5.350;2022-10-16T03:08:26;13.50;99.90
41668;DHT22;27356;50.920;5.350;2022-10-16T03:10:51;13.60;99.90
41668;DHT22;27356;50.920;5.350;2022-10-16T03:13:17;13.50;99.90
41668;DHT22;27356;50.920;5.350;2022-10-16T03:15:45;13.50;99.90
41668;DHT22;27356;50.920;5.350;2022-10-16T03:18:11;13.60;99.90
41668;DHT22;27356;50.920;5.350;2022-10-16T03:20:36;13.50;99.90
41668;DHT22;27356;50.920;5.350;2022-10-16T03:23:02;13.50;99.90
41668;DHT22;27356;50.920;5.350;2022-10-16T03:25:27;13.50;99.90
41668;DHT22;27356;50.920;5.350;2022-10-16T03:27:53;13.40;99.90
41668;DHT22;27356;50.920;5.350;2022-10-16T03:30:18;13.40;99.90
41668;DHT22;27356;50.920;5.350;2022-10-16T03:32:44;13.40;99.90
41668;DHT22;27356;50.920;5.350;2022-10-16T03:35:10;13.40;99.90
41668;DHT22;27356;50.920;5.350;2022-10-16T03:37:35;13.40;99.90
41668;DHT22;27356;50.920;5.350;2022-10-16T03:40:01;13.40;99.90
41668;DHT22;27356;50.920;5.350;2022-10-16T03:42:27;13.30;99.90
41668;DHT22;27356;50.920;5.350;2022-10-16T03:44:53;13.30;99.90
41668;DHT22;27356;50.920;5.350;2022-10-16T03:47:18;13.30;99.90
41668;DHT22;27356;50.920;5.350;2022-10-16T03:49:47;13.30;99.90
41668;DHT22;27356;50.920;5.350;2022-10-16T03:52:12;13.40;99.90
41668;DHT22;27356;50.920;5.350;2022-10-16T03:54:38;13.30;99.90
41668;DHT22;27356;50.920;5.350;2022-10-16T03:57:04;13.30;99.90
41668;DHT22;27356;50.920;5.350;2022-10-16T03:59:29;13.20;99.90
41668;DHT22;27356;50.920;5.350;2022-10-16T04:01:55;13.20;99.90
41668;DHT22;27356;50.920;5.350;2022-10-16T04:04:20;13.20;99.90
41668;DHT22;27356;50.920;5.350;2022-10-16T04:06:46;13.10;99.90
41668;DHT22;27356;50.920;5.350;2022-10-16T04:09:11;13.20;99.90
41668;DHT22;27356;50.920;5.350;2022-10-16T04:11:37;13.30;99.90
41668;DHT22;27356;50.920;5.350;2022-10-16T04:14:03;13.30;99.90
41668;DHT22;27356;50.920;5.350;2022-10-16T04:16:28;13.30;99.90
41668;DHT22;27356;50.920;5.350;2022-10-16T04:18:54;13.30;99.90
41668;DHT22;27356;50.920;5.350;2022-10-16T04:21:19;13.20;99.90
41668;DHT22;27356;50.920;5.350;2022-10-16T04:23:45;13.20;99.90
41668;DHT22;27356;50.920;5.350;2022-10-16T04:26:10;13.30;99.90
41668;DHT22;27356;50.920;5.350;2022-10-16T04:28:36;13.30;99.90
41668;DHT22;27356;50.920;5.350;2022-10-16T04:31:05;13.30;99.90
41668;DHT22;27356;50.920;5.350;2022-10-16T04:33:30;13.40;99.90
41668;DHT22;27356;50.920;5.350;2022-10-16T04:35:57;13.40;99.90
41668;DHT22;27356;50.920;5.350;2022-10-16T04:38:23;13.30;99.90
41668;DHT22;27356;50.920;5.350;2022-10-16T04:40:48;13.30;99.90
41668;DHT22;27356;50.920;5.350;2022-10-16T04:43:14;13.30;99.90
41668;DHT22;27356;50.920;5.350;2022-10-16T04:45:39;13.30;99.90
41668;DHT22;27356;50.920;5.350;2022-10-16T04:48:05;13.30;99.90
41668;DHT22;27356;50.920;5.350;2022-10-16T04:50:30;13.30;99.90
41668;DHT22;27356;50.920;5.350;2022-10-16T04:52:56;13.30;99.90
41668;DHT22;27356;50.920;5.350;2022-10-16T04:55:21;13.20;99.90
41668;DHT22;27356;50.920;5.350;2022-10-16T04:57:47;13.20;99.90
41668;DHT22;27356;50.920;5.350;2022-10-16T05:00:12;13.20;99.90
41668;DHT22;27356;50.920;5.350;2022-10-16T05:02:38;13.30;99.90
41668;DHT22;27356;50.920;5.350;2022-10-16T05:05:03;13.30;99.90
41668;DHT22;27356;50.920;5.350;2022-10-16T05:07:29;13.30;99.90
41668;DHT22;27356;50.920;5.350;2022-10-16T05:09:55;13.30;99.90
41668;DHT22;27356;50.920;5.350;2022-10-16T05:12:20;13.30;99.90
41668;DHT22;27356;50.920;5.350;2022-10-16T05:14:46;13.20;99.90
41668;DHT22;27356;50.920;5.350;2022-10-16T05:17:11;13.20;99.90
41668;DHT22;27356;50.920;5.350;2022-10-16T05:19:37;13.20;99.90
41668;DHT22;27356;50.920;5.350;2022-10-16T05:22:02;13.20;99.90
41668;DHT22;27356;50.920;5.350;2022-10-16T05:24:28;13.20;99.90
41668;DHT22;27356;50.920;5.350;2022-10-16T05:26:53;13.10;99.90
41668;DHT22;27356;50.920;5.350;2022-10-16T05:29:19;13.10;99.90
41668;DHT22;27356;50.920;5.350;2022-10-16T05:31:45;13.10;99.90
41668;DHT22;27356;50.920;5.350;2022-10-16T05:34:10;13.10;99.90
41668;DHT22;27356;50.920;5.350;2022-10-16T05:36:36;13.10;99.90
41668;DHT22;27356;50.920;5.350;2022-10-16T05:39:02;13.10;99.90
41668;DHT22;27356;50.920;5.350;2022-10-16T05:41:27;13.10;99.90
41668;DHT22;27356;50.920;5.350;2022-10-16T05:43:53;13.10;99.90
41668;DHT22;27356;50.920;5.350;2022-10-16T05:46:18;13.10;99.90
41668;DHT22;27356;50.920;5.350;2022-10-16T05:48:44;13.00;99.90
41668;DHT22;27356;50.920;5.350;2022-10-16T05:51:11;13.00;99.90
41668;DHT22;27356;50.920;5.350;2022-10-16T05:53:37;12.80;99.90
41668;DHT22;27356;50.920;5.350;2022-10-16T05:56:03;12.70;99.90
41668;DHT22;27356;50.920;5.350;2022-10-16T05:58:29;12.70;99.90
41668;DHT22;27356;50.920;5.350;2022-10-16T06:00:55;12.60;99.90
41668;DHT22;27356;50.920;5.350;2022-10-16T06:03:21;12.60;99.90
41668;DHT22;27356;50.920;5.350;2022-10-16T06:05:47;12.60;99.90
41668;DHT22;27356;50.920;5.350;2022-10-16T06:08:13;12.70;99.90
41668;DHT22;27356;50.920;5.350;2022-10-16T06:10:38;12.70;99.90
41668;DHT22;27356;50.920;5.350;2022-10-16T06:13:04;12.80;99.90
41668;DHT22;27356;50.920;5.350;2022-10-16T06:15:29;12.80;99.90
41668;DHT22;27356;50.920;5.350;2022-10-16T06:17:55;12.90;99.90
41668;DHT22;27356;50.920;5.350;2022-10-16T06:20:20;12.90;99.90
41668;DHT22;27356;50.920;5.350;2022-10-16T06:22:46;12.90;99.90
41668;DHT22;27356;50.920;5.350;2022-10-16T06:25:11;12.90;99.90
41668;DHT22;27356;50.920;5.350;2022-10-16T06:27:39;13.00;99.90
41668;DHT22;27356;50.920;5.350;2022-10-16T06:30:04;13.10;99.90
41668;DHT22;27356;50.920;5.350;2022-10-16T06:32:30;13.10;99.90
41668;DHT22;27356;50.920;5.350;2022-10-16T06:34:55;13.10;99.90
41668;DHT22;27356;50.920;5.350;2022-10-16T06:37:21;13.10;99.90
41668;DHT22;27356;50.920;5.350;2022-10-16T06:39:47;13.10;99.90
41668;DHT22;27356;50.920;5.350;2022-10-16T06:42:12;13.10;99.90
41668;DHT22;27356;50.920;5.350;2022-10-16T06:44:38;13.10;99.90
41668;DHT22;27356;50.920;5.350;2022-10-16T06:47:03;13.10;99.90
41668;DHT22;27356;50.920;5.350;2022-10-16T06:49:29;13.10;99.90
41668;DHT22;27356;50.920;5.350;2022-10-16T06:51:54;13.10;99.90
41668;DHT22;27356;50.920;5.350;2022-10-16T06:54:20;13.10;99.90
41668;DHT22;27356;50.920;5.350;2022-10-16T06:56:45;13.10;99.90
41668;DHT22;27356;50.920;5.350;2022-10-16T06:59:11;13.10;99.90
41668;DHT22;27356;50.920;5.350;2022-10-16T07:01:37;13.20;99.90
41668;DHT22;27356;50.920;5.350;2022-10-16T07:04:02;13.30;99.90
41668;DHT22;27356;50.920;5.350;2022-10-16T07:06:30;13.90;99.90
41668;DHT22;27356;50.920;5.350;2022-10-16T07:08:56;14.20;99.90
41668;DHT22;27356;50.920;5.350;2022-10-16T07:11:22;14.70;99.90
41668;DHT22;27356;50.920;5.350;2022-10-16T07:13:48;15.20;99.90
41668;DHT22;27356;50.920;5.350;2022-10-16T07:16:15;15.70;99.90
41668;DHT22;27356;50.920;5.350;2022-10-16T07:18:41;16.20;99.90
41668;DHT22;27356;50.920;5.350;2022-10-16T07:21:11;16.70;99.90
41668;DHT22;27356;50.920;5.350;2022-10-16T07:23:37;17.20;99.90
41668;DHT22;27356;50.920;5.350;2022-10-16T07:26:03;17.30;99.90
41668;DHT22;27356;50.920;5.350;2022-10-16T07:28:29;17.70;99.90
41668;DHT22;27356;50.920;5.350;2022-10-16T07:30:54;18.00;99.90
41668;DHT22;27356;50.920;5.350;2022-10-16T07:33:20;18.40;99.90
41668;DHT22;27356;50.920;5.350;2022-10-16T07:35:50;18.70;99.90
41668;DHT22;27356;50.920;5.350;2022-10-16T07:38:15;19.10;99.90
41668;DHT22;27356;50.920;5.350;2022-10-16T07:40:41;19.20;99.90
41668;DHT22;27356;50.920;5.350;2022-10-16T07:43:06;19.50;99.90
41668;DHT22;27356;50.920;5.350;2022-10-16T07:45:32;19.30;99.90
41668;DHT22;27356;50.920;5.350;2022-10-16T07:47:59;19.50;99.90
41668;DHT22;27356;50.920;5.350;2022-10-16T07:50:24;20.00;99.90
41668;DHT22;27356;50.920;5.350;2022-10-16T07:52:50;19.80;99.90
41668;DHT22;27356;50.920;5.350;2022-10-16T07:55:15;19.80;99.90
41668;DHT22;27356;50.920;5.350;2022-10-16T07:57:41;20.00;99.90
41668;DHT22;27356;50.920;5.350;2022-10-16T08:00:07;20.20;99.90
41668;DHT22;27356;50.920;5.350;2022-10-16T08:02:32;20.40;99.90
41668;DHT22;27356;50.920;5.350;2022-10-16T08:04:58;20.80;99.90
41668;DHT22;27356;50.920;5.350;2022-10-16T08:07:23;21.20;99.90
41668;DHT22;27356;50.920;5.350;2022-10-16T08:09:49;21.60;99.90
41668;DHT22;27356;50.920;5.350;2022-10-16T08:12:16;21.60;99.90
41668;DHT22;27356;50.920;5.350;2022-10-16T08:14:42;22.00;99.90
41668;DHT22;27356;50.920;5.350;2022-10-16T08:17:07;22.30;99.90
41668;DHT22;27356;50.920;5.350;2022-10-16T08:19:33;22.70;99.90
41668;DHT22;27356;50.920;5.350;2022-10-16T08:22:00;22.60;99.90
41668;DHT22;27356;50.920;5.350;2022-10-16T08:24:26;22.80;99.80
41668;DHT22;27356;50.920;5.350;2022-10-16T08:26:53;22.80;99.90
41668;DHT22;27356;50.920;5.350;2022-10-16T08:29:19;22.90;99.30
41668;DHT22;27356;50.920;5.350;2022-10-16T08:31:45;23.10;98.70
41668;DHT22;27356;50.920;5.350;2022-10-16T08:34:10;23.10;98.70
41668;DHT22;27356;50.920;5.350;2022-10-16T08:36:36;22.90;98.40
41668;DHT22;27356;50.920;5.350;2022-10-16T08:39:01;22.70;98.60
41668;DHT22;27356;50.920;5.350;2022-10-16T08:44:18;22.30;99.60
41668;DHT22;27356;50.920;5.350;2022-10-16T08:47:08;22.50;99.00
41668;DHT22;27356;50.920;5.350;2022-10-16T08:49:36;22.60;98.70
41668;DHT22;27356;50.920;5.350;2022-10-16T08:52:03;22.80;98.40
41668;DHT22;27356;50.920;5.350;2022-10-16T08:54:36;22.70;99.10
41668;DHT22;27356;50.920;5.350;2022-10-16T08:57:13;22.40;98.90
41668;DHT22;27356;50.920;5.350;2022-10-16T08:59:39;23.00;99.00
41668;DHT22;27356;50.920;5.350;2022-10-16T09:02:16;23.40;98.90
41668;DHT22;27356;50.920;5.350;2022-10-16T09:04:58;22.90;98.30
41668;DHT22;27356;50.920;5.350;2022-10-16T09:07:32;22.40;98.50
41668;DHT22;27356;50.920;5.350;2022-10-16T09:12:51;22.00;99.10
41668;DHT22;27356;50.920;5.350;2022-10-16T09:15:27;21.50;99.70
41668;DHT22;27356;50.920;5.350;2022-10-16T09:18:10;20.90;99.90
41668;DHT22;27356;50.920;5.350;2022-10-16T09:23:28;20.10;99.90
41668;DHT22;27356;50.920;5.350;2022-10-16T09:25:54;19.80;99.90
41668;DHT22;27356;50.920;5.350;2022-10-16T09:28:21;19.60;99.90
41668;DHT22;27356;50.920;5.350;2022-10-16T09:30:46;19.60;99.90
41668;DHT22;27356;50.920;5.350;2022-10-16T09:33:13;19.40;99.90
41668;DHT22;27356;50.920;5.350;2022-10-16T09:35:41;19.30;99.90
41668;DHT22;27356;50.920;5.350;2022-10-16T09:38:07;19.40;99.90
41668;DHT22;27356;50.920;5.350;2022-10-16T09:40:37;19.30;99.90
41668;DHT22;27356;50.920;5.350;2022-10-16T09:45:29;19.10;99.90
41668;DHT22;27356;50.920;5.350;2022-10-16T09:47:54;19.10;99.90
41668;DHT22;27356;50.920;5.350;2022-10-16T09:50:27;19.10;99.90
41668;DHT22;27356;50.920;5.350;2022-10-16T09:53:10;19.00;99.90
41668;DHT22;27356;50.920;5.350;2022-10-16T09:55:36;19.00;99.90
41668;DHT22;27356;50.920;5.350;2022-10-16T09:58:01;19.10;99.90
41668;DHT22;27356;50.920;5.350;2022-10-16T10:00:27;19.10;99.90
41668;DHT22;27356;50.920;5.350;2022-10-16T10:02:53;19.00;99.90
41668;DHT22;27356;50.920;5.350;2022-10-16T10:05:23;19.10;99.90
41668;DHT22;27356;50.920;5.350;2022-10-16T10:08:00;19.10;99.90
41668;DHT22;27356;50.920;5.350;2022-10-16T10:10:30;19.30;99.90
41668;DHT22;27356;50.920;5.350;2022-10-16T10:12:57;18.90;99.90
41668;DHT22;27356;50.920;5.350;2022-10-16T10:15:22;19.00;99.90
41668;DHT22;27356;50.920;5.350;2022-10-16T10:20:22;19.20;99.90
41668;DHT22;27356;50.920;5.350;2022-10-16T10:22:48;19.40;99.90
41668;DHT22;27356;50.920;5.350;2022-10-16T10:37:31;19.30;99.90
41668;DHT22;27356;50.920;5.350;2022-10-16T10:42:47;19.20;99.90
41668;DHT22;27356;50.920;5.350;2022-10-16T11:00:50;19.60;99.90
41668;DHT22;27356;50.920;5.350;2022-10-16T11:08:31;19.90;99.90
41668;DHT22;27356;50.920;5.350;2022-10-16T11:11:03;20.20;99.90
41668;DHT22;27356;50.920;5.350;2022-10-16T11:13:40;20.00;99.90
41668;DHT22;27356;50.920;5.350;2022-10-16T11:16:16;19.90;99.90
41668;DHT22;27356;50.920;5.350;2022-10-16T11:18:54;19.90;99.90
41668;DHT22;27356;50.920;5.350;2022-10-16T11:21:22;20.10;99.90
41668;DHT22;27356;50.920;5.350;2022-10-16T11:24:19;20.30;99.90
41668;DHT22;27356;50.920;5.350;2022-10-16T11:26:45;20.30;99.90
41668;DHT22;27356;50.920;5.350;2022-10-16T11:29:34;20.20;99.90
41668;DHT22;27356;50.920;5.350;2022-10-16T11:32:00;20.20;99.90
41668;DHT22;27356;50.920;5.350;2022-10-16T11:34:37;20.30;99.90
41668;DHT22;27356;50.920;5.350;2022-10-16T11:37:06;20.20;99.90
41668;DHT22;27356;50.920;5.350;2022-10-16T11:39:34;20.40;99.90
41668;DHT22;27356;50.920;5.350;2022-10-16T11:49:36;20.40;99.90
41668;DHT22;27356;50.920;5.350;2022-10-16T11:52:17;20.50;99.90
41668;DHT22;27356;50.920;5.350;2022-10-16T11:54:47;20.60;99.90
41668;DHT22;27356;50.920;5.350;2022-10-16T11:57:19;20.90;99.90
41668;DHT22;27356;50.920;5.350;2022-10-16T11:59:48;21.10;99.70
41668;DHT22;27356;50.920;5.350;2022-10-16T12:02:33;20.90;99.60
41668;DHT22;27356;50.920;5.350;2022-10-16T12:05:11;20.60;99.70
41668;DHT22;27356;50.920;5.350;2022-10-16T12:07:42;20.50;99.90
41668;DHT22;27356;50.920;5.350;2022-10-16T12:15:47;20.80;99.90
41668;DHT22;27356;50.920;5.350;2022-10-16T12:18:23;20.90;99.90
41668;DHT22;27356;50.920;5.350;2022-10-16T12:20:57;21.00;99.30
41668;DHT22;27356;50.920;5.350;2022-10-16T12:23:32;21.10;99.70
41668;DHT22;27356;50.920;5.350;2022-10-16T12:25:58;21.10;99.40
41668;DHT22;27356;50.920;5.350;2022-10-16T12:28:28;21.00;99.70
41668;DHT22;27356;50.920;5.350;2022-10-16T12:30:55;21.10;99.60
41668;DHT22;27356;50.920;5.350;2022-10-16T12:33:22;21.20;99.00
41668;DHT22;27356;50.920;5.350;2022-10-16T12:35:49;21.30;99.20
41668;DHT22;27356;50.920;5.350;2022-10-16T12:38:19;21.30;99.30
41668;DHT22;27356;50.920;5.350;2022-10-16T12:40:46;21.60;99.20
41668;DHT22;27356;50.920;5.350;2022-10-16T12:43:27;21.90;98.90
41668;DHT22;27356;50.920;5.350;2022-10-16T12:46:02;22.20;98.10
41668;DHT22;27356;50.920;5.350;2022-10-16T12:48:28;22.10;98.20
41668;DHT22;27356;50.920;5.350;2022-10-16T12:50:54;22.10;97.80
41668;DHT22;27356;50.920;5.350;2022-10-16T12:53:24;22.00;98.50
41668;DHT22;27356;50.920;5.350;2022-10-16T12:55:52;21.60;98.30
41668;DHT22;27356;50.920;5.350;2022-10-16T13:00:50;21.50;99.40
41668;DHT22;27356;50.920;5.350;2022-10-16T13:08:34;21.30;99.30
41668;DHT22;27356;50.920;5.350;2022-10-16T13:16:17;21.40;98.80
41668;DHT22;27356;50.920;5.350;2022-10-16T13:18:52;21.50;98.50
41668;DHT22;27356;50.920;5.350;2022-10-16T13:24:19;21.60;98.40
41668;DHT22;27356;50.920;5.350;2022-10-16T13:26:52;21.70;98.30
41668;DHT22;27356;50.920;5.350;2022-10-16T13:29:18;21.90;98.20
41668;DHT22;27356;50.920;5.350;2022-10-16T13:31:44;21.80;98.30
41668;DHT22;27356;50.920;5.350;2022-10-16T13:34:12;21.40;98.40
41668;DHT22;27356;50.920;5.350;2022-10-16T13:36:43;21.50;98.60
41668;DHT22;27356;50.920;5.350;2022-10-16T13:41:34;21.60;99.00
41668;DHT22;27356;50.920;5.350;2022-10-16T13:44:00;21.70;97.60
41668;DHT22;27356;50.920;5.350;2022-10-16T13:46:25;21.70;98.00
41668;DHT22;27356;50.920;5.350;2022-10-16T13:49:04;21.60;98.80
41668;DHT22;27356;50.920;5.350;2022-10-16T13:51:31;21.50;98.50
41668;DHT22;27356;50.920;5.350;2022-10-16T13:53:56;21.20;99.90
41668;DHT22;27356;50.920;5.350;2022-10-16T13:56:24;21.00;99.90
41668;DHT22;27356;50.920;5.350;2022-10-16T13:59:00;21.10;99.90
41668;DHT22;27356;50.920;5.350;2022-10-16T14:01:27;21.40;99.90
41668;DHT22;27356;50.920;5.350;2022-10-16T14:03:59;21.50;99.30
41668;DHT22;27356;50.920;5.350;2022-10-16T14:06:26;21.30;99.90
41668;DHT22;27356;50.920;5.350;2022-10-16T14:08:54;21.30;99.90
41668;DHT22;27356;50.920;5.350;2022-10-16T14:11:22;21.50;99.90
41668;DHT22;27356;50.920;5.350;2022-10-16T14:13:48;21.90;99.40
41668;DHT22;27356;50.920;5.350;2022-10-16T14:16:19;21.90;98.90
41668;DHT22;27356;50.920;5.350;2022-10-16T14:18:45;22.10;98.50
41668;DHT22;27356;50.920;5.350;2022-10-16T14:21:12;22.00;97.70
41668;DHT22;27356;50.920;5.350;2022-10-16T14:23:39;21.60;97.40
41668;DHT22;27356;50.920;5.350;2022-10-16T14:26:15;21.50;97.70
41668;DHT22;27356;50.920;5.350;2022-10-16T14:28:41;21.60;98.20
41668;DHT22;27356;50.920;5.350;2022-10-16T14:33:44;21.20;98.70
41668;DHT22;27356;50.920;5.350;2022-10-16T14:36:11;21.00;98.20
41668;DHT22;27356;50.920;5.350;2022-10-16T14:38:41;21.00;98.90
41668;DHT22;27356;50.920;5.350;2022-10-16T14:41:08;20.70;99.00
41668;DHT22;27356;50.920;5.350;2022-10-16T14:43:35;20.70;99.10
41668;DHT22;27356;50.920;5.350;2022-10-16T14:46:02;20.90;99.40
41668;DHT22;27356;50.920;5.350;2022-10-16T14:48:29;20.90;98.80
41668;DHT22;27356;50.920;5.350;2022-10-16T14:50:55;21.10;98.70
41668;DHT22;27356;50.920;5.350;2022-10-16T14:53:20;21.00;98.80
41668;DHT22;27356;50.920;5.350;2022-10-16T14:55:46;21.00;99.00
41668;DHT22;27356;50.920;5.350;2022-10-16T14:58:15;21.10;99.00
41668;DHT22;27356;50.920;5.350;2022-10-16T15:00:41;21.00;98.50
41668;DHT22;27356;50.920;5.350;2022-10-16T15:03:07;21.00;99.00
41668;DHT22;27356;50.920;5.350;2022-10-16T15:05:32;21.00;99.60
41668;DHT22;27356;50.920;5.350;2022-10-16T15:07:58;21.10;99.40
41668;DHT22;27356;50.920;5.350;2022-10-16T15:10:24;21.00;99.20
41668;DHT22;27356;50.920;5.350;2022-10-16T15:12:50;20.90;99.60
41668;DHT22;27356;50.920;5.350;2022-10-16T15:15:31;20.90;99.60
41668;DHT22;27356;50.920;5.350;2022-10-16T15:17:58;21.00;99.70
41668;DHT22;27356;50.920;5.350;2022-10-16T15:20:35;21.00;99.20
41668;DHT22;27356;50.920;5.350;2022-10-16T15:23:01;20.90;99.50
41668;DHT22;27356;50.920;5.350;2022-10-16T15:25:29;20.80;99.90
41668;DHT22;27356;50.920;5.350;2022-10-16T15:27:56;20.80;99.90
41668;DHT22;27356;50.920;5.350;2022-10-16T15:30:21;20.70;99.90
41668;DHT22;27356;50.920;5.350;2022-10-16T15:32:47;20.70;99.90
41668;DHT22;27356;50.920;5.350;2022-10-16T15:35:12;20.70;99.90
41668;DHT22;27356;50.920;5.350;2022-10-16T15:37:38;20.50;99.90
41668;DHT22;27356;50.920;5.350;2022-10-16T15:40:03;20.40;99.90
41668;DHT22;27356;50.920;5.350;2022-10-16T15:42:29;20.30;99.90
41668;DHT22;27356;50.920;5.350;2022-10-16T15:44:55;20.30;99.90
41668;DHT22;27356;50.920;5.350;2022-10-16T15:47:20;20.30;99.90
41668;DHT22;27356;50.920;5.350;2022-10-16T15:49:46;20.10;99.90
41668;DHT22;27356;50.920;5.350;2022-10-16T15:52:11;19.80;99.90
41668;DHT22;27356;50.920;5.350;2022-10-16T15:54:37;19.70;99.90
41668;DHT22;27356;50.920;5.350;2022-10-16T15:57:02;19.50;99.90
41668;DHT22;27356;50.920;5.350;2022-10-16T15:59:28;19.40;99.90
41668;DHT22;27356;50.920;5.350;2022-10-16T16:01:53;19.50;99.90
41668;DHT22;27356;50.920;5.350;2022-10-16T16:04:19;19.50;99.90
41668;DHT22;27356;50.920;5.350;2022-10-16T16:06:44;19.50;99.90
41668;DHT22;27356;50.920;5.350;2022-10-16T16:09:11;19.50;99.90
41668;DHT22;27356;50.920;5.350;2022-10-16T16:11:37;19.60;99.90
41668;DHT22;27356;50.920;5.350;2022-10-16T16:14:06;19.40;99.90
41668;DHT22;27356;50.920;5.350;2022-10-16T16:16:32;19.40;99.90
41668;DHT22;27356;50.920;5.350;2022-10-16T16:19:04;19.30;99.90
41668;DHT22;27356;50.920;5.350;2022-10-16T16:21:41;19.30;99.90
41668;DHT22;27356;50.920;5.350;2022-10-16T16:24:07;19.20;99.90
41668;DHT22;27356;50.920;5.350;2022-10-16T16:26:34;19.10;99.90
41668;DHT22;27356;50.920;5.350;2022-10-16T16:29:02;19.00;99.90
41668;DHT22;27356;50.920;5.350;2022-10-16T16:31:28;19.00;99.90
41668;DHT22;27356;50.920;5.350;2022-10-16T16:33:54;19.00;99.90
41668;DHT22;27356;50.920;5.350;2022-10-16T16:36:19;18.90;99.90
41668;DHT22;27356;50.920;5.350;2022-10-16T16:38:45;18.90;99.90
41668;DHT22;27356;50.920;5.350;2022-10-16T16:41:12;18.90;99.90
41668;DHT22;27356;50.920;5.350;2022-10-16T16:43:37;18.70;99.90
41668;DHT22;27356;50.920;5.350;2022-10-16T16:46:03;18.70;99.90
41668;DHT22;27356;50.920;5.350;2022-10-16T16:48:29;18.60;99.90
41668;DHT22;27356;50.920;5.350;2022-10-16T16:50:54;18.50;99.90
41668;DHT22;27356;50.920;5.350;2022-10-16T16:53:20;18.30;99.90
41668;DHT22;27356;50.920;5.350;2022-10-16T16:55:45;18.20;99.90
41668;DHT22;27356;50.920;5.350;2022-10-16T16:58:11;18.30;99.90
41668;DHT22;27356;50.920;5.350;2022-10-16T17:00:36;18.30;99.90
41668;DHT22;27356;50.920;5.350;2022-10-16T17:03:02;18.30;99.90
41668;DHT22;27356;50.920;5.350;2022-10-16T17:05:27;18.40;99.90
41668;DHT22;27356;50.920;5.350;2022-10-16T17:07:53;18.30;99.90
41668;DHT22;27356;50.920;5.350;2022-10-16T17:10:18;18.30;99.90
41668;DHT22;27356;50.920;5.350;2022-10-16T17:12:44;18.20;99.90
41668;DHT22;27356;50.920;5.350;2022-10-16T17:15:09;18.20;99.90